Time;durP1;ratioP1;P1;durP2;ratioP2;P2;SDS_P1;SDS_P2;PMS_P1;PMS_P2;Temp;Humidity;BMP_temperature;BMP_pressure;BME280_temperature;BME280_humidity;BME280_pressure;Samples;Min_cycle;Max_cycle;Signal;HPM_P1;HPM_P2
2022/07/13 00:02:19;;;;;;;3.35;1.40;;;20.30;99.90;;;;;;5040671;28;20048;-75
2022/07/13 00:04:45;;;;;;;3.13;1.48;;;20.50;99.90;;;;;;5060523;28;20041;-76
2022/07/13 00:07:10;;;;;;;1.70;1.60;;;20.30;99.90;;;;;;5065529;28;20492;-75
2022/07/13 00:09:36;;;;;;;1.85;1.40;;;20.30;99.90;;;;;;5062492;28;20060;-75
2022/07/13 00:12:02;;;;;;;2.92;1.67;;;20.30;99.90;;;;;;5067517;28;20040;-75
2022/07/13 00:14:27;;;;;;;2.53;1.40;;;20.20;99.90;;;;;;5039714;28;20094;-75
2022/07/13 00:16:53;;;;;;;3.83;2.10;;;20.20;99.90;;;;;;5058686;28;20043;-75
2022/07/13 00:19:18;;;;;;;1.88;1.63;;;20.20;99.90;;;;;;5060636;28;20527;-75
2022/07/13 00:21:44;;;;;;;3.63;1.80;;;20.20;99.90;;;;;;5065942;28;20064;-76
2022/07/13 00:24:09;;;;;;;1.55;1.45;;;20.20;99.90;;;;;;5062055;28;20115;-75
2022/07/13 00:26:35;;;;;;;2.88;1.60;;;20.10;99.90;;;;;;5065707;28;20036;-76
2022/07/13 00:29:01;;;;;;;3.20;1.70;;;20.10;99.90;;;;;;5060063;28;20128;-75
2022/07/13 00:31:26;;;;;;;2.67;1.63;;;20.10;99.90;;;;;;5064198;28;20047;-76
2022/07/13 00:33:52;;;;;;;2.05;1.60;;;20.20;99.90;;;;;;5064043;28;20037;-76
2022/07/13 00:36:17;;;;;;;3.40;1.85;;;20.10;99.90;;;;;;5066125;28;20040;-75
2022/07/13 00:38:43;;;;;;;4.75;1.88;;;20.10;99.90;;;;;;5044917;28;20052;-75
2022/07/13 00:41:09;;;;;;;7.18;1.67;;;20.10;99.90;;;;;;5066929;28;20033;-75
2022/07/13 00:43:34;;;;;;;2.17;1.77;;;20.10;99.90;;;;;;5062741;28;20522;-75
2022/07/13 00:46:00;;;;;;;2.42;2.05;;;20.20;99.90;;;;;;5060722;28;20501;-75
2022/07/13 00:48:26;;;;;;;2.83;2.50;;;20.20;99.90;;;;;;5057205;28;20403;-75
2022/07/13 00:50:55;;;;;;;4.50;2.30;;;20.20;99.90;;;;;;5067572;28;20048;-75
2022/07/13 00:53:21;;;;;;;2.00;1.85;;;20.20;99.90;;;;;;5063965;28;20036;-75
2022/07/13 00:55:47;;;;;;;3.10;2.33;;;20.20;99.90;;;;;;5058709;28;20049;-75
2022/07/13 00:58:13;;;;;;;1.92;1.60;;;20.20;99.90;;;;;;5066979;28;20048;-76
2022/07/13 01:00:39;;;;;;;2.15;1.92;;;20.20;99.90;;;;;;5064506;28;20039;-77
2022/07/13 01:03:05;;;;;;;2.55;2.13;;;20.10;99.90;;;;;;5066573;28;20131;-76
2022/07/13 01:05:30;;;;;;;3.90;2.15;;;21.00;99.90;;;;;;5060127;28;20052;-77
2022/07/13 01:07:56;;;;;;;4.20;1.95;;;20.60;99.90;;;;;;5060624;28;20044;-74
2022/07/13 01:10:23;;;;;;;2.45;2.25;;;20.60;99.90;;;;;;5066639;28;20064;-76
2022/07/13 01:12:48;;;;;;;2.17;2.05;;;20.20;99.90;;;;;;5057317;28;20036;-78
2022/07/13 01:15:15;;;;;;;2.53;2.33;;;20.20;99.90;;;;;;5068896;28;20097;-77
2022/07/13 01:17:41;;;;;;;2.28;2.10;;;20.20;99.90;;;;;;5058717;28;20040;-75
2022/07/13 01:20:08;;;;;;;4.78;2.08;;;20.80;99.90;;;;;;5047183;28;20040;-79
2022/07/13 01:22:53;;;;;;;3.95;2.28;;;20.20;99.90;;;;;;5062806;28;20514;-77
2022/07/13 01:25:19;;;;;;;3.67;3.17;;;20.10;99.90;;;;;;5051571;28;20060;-77
2022/07/13 01:27:47;;;;;;;4.95;3.03;;;20.20;99.90;;;;;;5061728;28;20575;-79
2022/07/13 01:30:13;;;;;;;4.07;2.70;;;20.90;99.90;;;;;;5058378;28;20052;-75
2022/07/13 01:32:44;;;;;;;4.00;3.60;;;20.80;99.90;;;;;;5063962;28;20161;-79
2022/07/13 01:35:10;;;;;;;3.58;3.05;;;20.10;99.90;;;;;;5062301;28;20036;-79
2022/07/13 01:37:36;;;;;;;4.28;3.75;;;20.10;99.90;;;;;;5040000;28;20068;-74
2022/07/13 01:40:02;;;;;;;4.13;3.60;;;20.10;99.90;;;;;;5055650;28;20045;-76
2022/07/13 01:42:27;;;;;;;4.00;3.63;;;20.10;99.90;;;;;;5046735;28;20060;-79
2022/07/13 01:44:54;;;;;;;4.70;3.92;;;20.80;99.90;;;;;;5057091;28;20049;-78
2022/07/13 01:47:20;;;;;;;4.28;3.97;;;20.30;99.90;;;;;;5066150;28;20162;-77
2022/07/13 01:49:51;;;;;;;4.53;4.13;;;20.80;99.90;;;;;;5061984;28;21711;-76
2022/07/13 01:52:17;;;;;;;5.07;4.00;;;20.10;99.90;;;;;;5065236;28;20044;-78
2022/07/13 01:54:42;;;;;;;5.43;4.65;;;20.20;99.90;;;;;;5043211;28;20408;-79
2022/07/13 01:57:08;;;;;;;4.70;4.18;;;20.10;99.90;;;;;;5063166;28;20032;-78
2022/07/13 01:59:34;;;;;;;5.32;4.88;;;20.20;99.90;;;;;;5046763;28;20071;-78
2022/07/13 02:01:59;;;;;;;6.63;4.25;;;20.00;99.90;;;;;;5065437;28;20040;-77
2022/07/13 02:04:25;;;;;;;5.55;4.15;;;20.10;99.90;;;;;;5052129;28;20056;-74
2022/07/13 02:06:51;;;;;;;4.90;4.20;;;20.10;99.90;;;;;;5047224;28;20055;-80
2022/07/13 02:09:16;;;;;;;5.45;4.78;;;20.10;99.90;;;;;;5045249;28;20064;-76
2022/07/13 02:11:42;;;;;;;5.35;4.85;;;20.00;99.90;;;;;;5065348;28;20526;-78
2022/07/13 02:14:08;;;;;;;4.95;4.55;;;20.10;99.90;;;;;;5048735;28;20377;-77
2022/07/13 02:16:33;;;;;;;5.22;4.90;;;20.00;99.90;;;;;;5066257;28;20151;-78
2022/07/13 02:18:59;;;;;;;5.07;4.53;;;20.00;99.90;;;;;;5060474;28;20064;-75
2022/07/13 02:21:24;;;;;;;5.00;4.50;;;20.00;99.90;;;;;;5065178;28;20542;-75
2022/07/13 02:23:51;;;;;;;5.68;5.28;;;20.60;99.90;;;;;;5050511;28;20037;-75
2022/07/13 02:26:16;;;;;;;6.28;5.70;;;20.70;99.90;;;;;;5013394;28;20599;-77
2022/07/13 02:28:42;;;;;;;5.93;5.45;;;20.00;99.90;;;;;;5059815;28;20115;-73
2022/07/13 02:31:08;;;;;;;5.93;5.00;;;20.10;99.90;;;;;;5059884;28;20047;-79
2022/07/13 02:33:33;;;;;;;5.95;5.53;;;20.50;99.90;;;;;;5066686;28;20165;-77
2022/07/13 02:35:59;;;;;;;5.78;5.18;;;20.00;99.90;;;;;;5056981;28;20388;-75
2022/07/13 02:38:25;;;;;;;6.38;5.82;;;20.00;99.90;;;;;;5043568;28;20033;-76
2022/07/13 02:40:50;;;;;;;7.28;6.55;;;20.00;99.90;;;;;;5063254;28;20048;-75
2022/07/13 02:43:16;;;;;;;7.65;6.85;;;19.90;99.90;;;;;;5061300;28;20476;-74
2022/07/13 02:45:41;;;;;;;7.13;6.25;;;20.00;99.90;;;;;;5055413;28;20055;-77
2022/07/13 02:48:07;;;;;;;6.05;5.55;;;20.60;99.90;;;;;;5060655;28;20067;-70
2022/07/13 02:50:33;;;;;;;8.02;6.15;;;20.20;99.90;;;;;;5042204;28;20052;-76
2022/07/13 02:52:58;;;;;;;6.63;6.05;;;19.90;99.90;;;;;;5040067;28;20598;-75
2022/07/13 02:55:24;;;;;;;6.28;5.80;;;20.00;99.90;;;;;;5060284;28;20040;-77
2022/07/13 02:57:50;;;;;;;7.65;6.95;;;20.00;99.90;;;;;;5047502;28;20097;-76
2022/07/13 03:00:15;;;;;;;6.13;5.60;;;20.40;99.90;;;;;;5047428;28;20040;-76
2022/07/13 03:02:41;;;;;;;5.68;5.28;;;19.90;99.90;;;;;;5055094;28;20037;-78
2022/07/13 03:05:08;;;;;;;8.15;6.40;;;19.90;99.90;;;;;;5036121;28;20047;-76
2022/07/13 03:07:33;;;;;;;6.93;6.03;;;19.90;99.90;;;;;;5044397;28;20118;-76
2022/07/13 03:10:02;;;;;;;6.30;5.70;;;19.90;99.90;;;;;;5059168;28;20072;-76
2022/07/13 03:12:27;;;;;;;6.35;5.75;;;19.50;99.90;;;;;;5053974;28;20053;-77
2022/07/13 03:14:53;;;;;;;7.03;6.35;;;19.90;99.90;;;;;;5066109;28;20041;-75
2022/07/13 03:17:18;;;;;;;7.75;6.00;;;19.90;99.90;;;;;;5045333;28;20063;-77
2022/07/13 03:19:44;;;;;;;6.97;6.28;;;19.80;99.90;;;;;;5034162;28;20044;-74
2022/07/13 03:22:10;;;;;;;7.60;6.25;;;19.90;99.90;;;;;;5050645;28;20487;-77
2022/07/13 03:24:35;;;;;;;6.13;5.30;;;19.90;99.90;;;;;;5065201;28;20048;-74
2022/07/13 03:27:04;;;;;;;7.13;5.90;;;19.90;99.90;;;;;;5068311;28;20561;-75
2022/07/13 03:29:30;;;;;;;8.13;7.30;;;19.90;99.90;;;;;;5060700;28;20045;-76
2022/07/13 03:31:55;;;;;;;5.78;5.38;;;20.20;99.90;;;;;;5060703;28;20045;-76
2022/07/13 03:34:26;;;;;;;6.32;5.75;;;19.80;99.90;;;;;;5029933;28;20037;-74
2022/07/13 03:36:52;;;;;;;6.95;6.35;;;19.80;99.90;;;;;;5054696;28;20036;-79
2022/07/13 03:39:18;;;;;;;7.07;5.18;;;20.40;99.90;;;;;;5068685;28;20070;-81
2022/07/13 03:41:43;;;;;;;6.88;5.82;;;20.60;99.90;;;;;;5069515;28;20083;-80
2022/07/13 03:44:12;;;;;;;6.10;5.63;;;19.70;99.90;;;;;;5066966;28;20113;-79
2022/07/13 03:46:38;;;;;;;7.88;7.28;;;19.80;99.90;;;;;;5044931;28;20464;-75
2022/07/13 03:49:03;;;;;;;6.75;6.15;;;19.80;99.90;;;;;;5044605;28;20083;-79
2022/07/13 03:51:29;;;;;;;6.38;5.88;;;19.80;99.90;;;;;;5072443;28;20036;-79
2022/07/13 03:53:55;;;;;;;6.35;5.78;;;19.90;99.90;;;;;;5069868;28;20135;-76
2022/07/13 03:56:20;;;;;;;6.55;5.93;;;19.80;99.90;;;;;;5045671;28;20087;-79
2022/07/13 03:58:46;;;;;;;6.82;6.22;;;19.80;99.90;;;;;;5067868;28;20029;-80
2022/07/13 04:01:11;;;;;;;6.53;5.95;;;19.80;99.90;;;;;;5057283;28;20087;-78
2022/07/13 04:03:37;;;;;;;7.35;6.00;;;19.80;99.90;;;;;;5058307;28;20257;-76
2022/07/13 04:06:03;;;;;;;7.13;6.53;;;19.80;99.90;;;;;;5048601;28;20045;-79
2022/07/13 04:08:29;;;;;;;5.93;5.35;;;19.80;99.90;;;;;;5046835;28;20149;-80
2022/07/13 04:10:54;;;;;;;6.90;6.30;;;19.70;99.90;;;;;;5067588;28;20063;-78
2022/07/13 04:13:20;;;;;;;9.05;6.60;;;19.80;99.90;;;;;;5061389;28;20044;-77
2022/07/13 04:15:45;;;;;;;9.05;6.00;;;20.50;99.90;;;;;;5065101;28;20102;-78
2022/07/13 04:18:11;;;;;;;7.28;6.68;;;20.60;99.90;;;;;;5062211;28;20049;-75
2022/07/13 04:20:37;;;;;;;6.15;5.45;;;20.20;99.90;;;;;;5049427;28;20044;-79
2022/07/13 04:23:05;;;;;;;6.90;6.25;;;19.80;99.90;;;;;;5047584;28;20033;-75
2022/07/13 04:25:31;;;;;;;6.25;5.70;;;19.80;99.90;;;;;;5046051;28;20116;-77
2022/07/13 04:28:00;;;;;;;6.28;5.78;;;19.80;99.90;;;;;;5064994;28;20496;-78
2022/07/13 04:30:26;;;;;;;6.03;5.53;;;19.80;99.90;;;;;;5036065;28;20086;-76
2022/07/13 04:32:52;;;;;;;10.93;6.07;;;20.10;99.90;;;;;;5064727;28;20101;-75
2022/07/13 04:35:18;;;;;;;7.22;6.40;;;19.80;99.90;;;;;;5037734;28;20045;-72
2022/07/13 04:37:43;;;;;;;6.43;5.97;;;19.80;99.90;;;;;;5050193;28;20044;-79
2022/07/13 04:40:10;;;;;;;7.10;6.03;;;20.00;99.90;;;;;;5049578;28;20043;-79
2022/07/13 04:42:35;;;;;;;6.30;5.70;;;19.90;99.90;;;;;;5058859;28;20044;-73
2022/07/13 04:45:01;;;;;;;6.35;5.88;;;19.90;99.90;;;;;;5058512;28;20056;-78
2022/07/13 04:47:27;;;;;;;5.97;5.47;;;19.90;99.90;;;;;;5064488;28;20071;-75
2022/07/13 04:49:53;;;;;;;6.90;5.88;;;20.60;99.90;;;;;;5047700;28;20045;-78
2022/07/13 04:52:25;;;;;;;7.00;6.40;;;19.90;99.90;;;;;;5068405;28;20050;-78
2022/07/13 04:54:51;;;;;;;6.22;5.03;;;19.90;99.90;;;;;;5060481;28;20481;-78
2022/07/13 04:57:16;;;;;;;6.13;5.63;;;19.90;99.90;;;;;;5050692;28;20307;-76
2022/07/13 04:59:42;;;;;;;9.02;6.15;;;20.70;99.90;;;;;;5062941;28;20328;-77
2022/07/13 05:02:15;;;;;;;6.32;5.82;;;20.60;99.90;;;;;;5062592;28;20474;-79
2022/07/13 05:04:41;;;;;;;6.57;6.00;;;19.90;99.90;;;;;;5042432;28;20037;-75
2022/07/13 05:07:09;;;;;;;8.55;7.10;;;20.50;99.90;;;;;;5044829;28;20067;-76
2022/07/13 05:09:35;;;;;;;6.95;6.25;;;20.00;99.90;;;;;;5065239;28;20036;-72
2022/07/13 05:12:01;;;;;;;6.82;6.22;;;19.90;99.90;;;;;;5040390;28;20043;-75
2022/07/13 05:14:26;;;;;;;7.15;6.55;;;20.20;99.90;;;;;;5041354;28;20115;-78
2022/07/13 05:16:52;;;;;;;7.60;6.85;;;19.90;99.90;;;;;;5060042;28;20032;-73
2022/07/13 05:19:18;;;;;;;7.47;6.68;;;20.20;99.90;;;;;;5060775;28;20037;-76
2022/07/13 05:21:43;;;;;;;8.05;7.22;;;19.80;99.90;;;;;;5066066;28;20399;-78
2022/07/13 05:24:09;;;;;;;11.93;7.43;;;19.90;99.90;;;;;;5036862;28;20094;-73
2022/07/13 05:26:36;;;;;;;7.70;7.03;;;19.90;99.90;;;;;;5056414;28;20124;-78
2022/07/13 05:29:06;;;;;;;8.35;7.53;;;19.90;99.90;;;;;;5056106;28;20048;-77
2022/07/13 05:31:38;;;;;;;10.20;8.05;;;20.70;99.90;;;;;;5059369;28;20071;-79
2022/07/13 05:34:03;;;;;;;8.52;7.72;;;20.00;99.90;;;;;;5058762;28;20040;-73
2022/07/13 05:36:29;;;;;;;9.02;7.13;;;20.70;99.90;;;;;;5060253;28;20051;-76
2022/07/13 05:38:55;;;;;;;10.73;8.40;;;19.90;99.90;;;;;;5041776;28;20922;-73
2022/07/13 05:41:21;;;;;;;9.35;7.53;;;20.10;99.90;;;;;;5040531;28;20379;-78
2022/07/13 05:43:47;;;;;;;10.18;8.00;;;20.00;99.90;;;;;;5057979;28;20139;-74
2022/07/13 05:46:13;;;;;;;9.90;8.90;;;20.00;99.90;;;;;;5040468;28;20044;-72
2022/07/13 05:48:41;;;;;;;8.55;7.75;;;20.00;99.90;;;;;;5058217;28;20054;-76
2022/07/13 05:51:06;;;;;;;9.20;8.30;;;20.00;99.90;;;;;;5055596;28;20044;-75
2022/07/13 05:53:32;;;;;;;9.90;8.25;;;20.00;99.90;;;;;;5058625;28;20044;-76
2022/07/13 05:55:58;;;;;;;9.52;8.50;;;19.90;99.90;;;;;;5059113;28;20040;-79
2022/07/13 05:58:23;;;;;;;9.48;8.57;;;20.00;99.90;;;;;;5057967;28;20532;-77
2022/07/13 06:00:50;;;;;;;9.30;8.13;;;20.00;99.90;;;;;;5058781;28;20063;-77
2022/07/13 06:03:16;;;;;;;9.55;8.75;;;20.00;99.90;;;;;;5039477;28;20116;-76
2022/07/13 06:05:44;;;;;;;9.90;8.93;;;20.00;99.90;;;;;;5057826;28;20629;-77
2022/07/13 06:08:10;;;;;;;9.35;8.45;;;20.10;99.90;;;;;;5035317;28;20140;-74
2022/07/13 06:10:35;;;;;;;13.13;8.90;;;20.10;99.90;;;;;;5057085;28;20488;-74
2022/07/13 06:13:04;;;;;;;10.63;8.20;;;20.10;99.90;;;;;;5038000;28;20131;-74
2022/07/13 06:15:29;;;;;;;10.02;8.38;;;20.10;99.90;;;;;;5057837;28;20461;-74
2022/07/13 06:17:55;;;;;;;10.45;9.10;;;20.10;99.90;;;;;;5037894;28;20048;-73
2022/07/13 06:20:21;;;;;;;9.73;8.70;;;20.20;99.90;;;;;;5058216;28;20037;-74
2022/07/13 06:23:09;;;;;;;10.15;9.25;;;20.20;99.90;;;;;;5054924;28;20359;-74
2022/07/13 06:25:32;;;;;;;9.53;8.67;;;20.20;99.90;;;;;;4346993;28;10000681;-74
2022/07/13 06:27:58;;;;;;;10.25;9.25;;;20.20;99.90;;;;;;5050770;28;20052;-74
2022/07/13 06:30:23;;;;;;;11.07;9.95;;;20.90;99.90;;;;;;5052878;28;20033;-75
2022/07/13 06:32:49;;;;;;;11.75;10.63;;;20.20;99.90;;;;;;5056046;28;20032;-75
2022/07/13 06:35:14;;;;;;;13.40;11.00;;;20.30;99.90;;;;;;5053298;28;20504;-75
2022/07/13 06:37:40;;;;;;;13.20;11.90;;;20.30;99.90;;;;;;5055772;28;20040;-76
2022/07/13 06:40:06;;;;;;;11.77;10.35;;;20.40;99.90;;;;;;5055978;28;20632;-78
2022/07/13 06:42:32;;;;;;;11.35;10.35;;;20.40;99.90;;;;;;5055053;28;20044;-75
2022/07/13 06:44:57;;;;;;;10.75;9.75;;;20.90;99.90;;;;;;5062330;28;20415;-74
2022/07/13 06:47:23;;;;;;;12.43;11.10;;;20.50;99.90;;;;;;5058997;28;20478;-74
2022/07/13 06:49:48;;;;;;;12.77;10.40;;;20.50;99.90;;;;;;5048421;28;20048;-74
2022/07/13 06:52:14;;;;;;;11.13;9.98;;;20.50;99.90;;;;;;5059971;28;20044;-74
2022/07/13 06:54:40;;;;;;;15.77;10.45;;;21.20;99.90;;;;;;5067258;28;20037;-73
2022/07/13 06:57:05;;;;;;;13.73;11.10;;;20.60;99.90;;;;;;5056894;28;20037;-73
2022/07/13 06:59:37;;;;;;;12.75;9.35;;;20.60;99.90;;;;;;5068513;28;20416;-74
2022/07/13 07:02:03;;;;;;;11.90;10.52;;;20.70;99.90;;;;;;5052414;28;20041;-73
2022/07/13 07:04:29;;;;;;;13.45;9.73;;;20.70;99.90;;;;;;5059443;28;20393;-74
2022/07/13 07:06:56;;;;;;;12.02;9.68;;;20.80;99.90;;;;;;5067816;28;20113;-74
2022/07/13 07:09:22;;;;;;;10.55;9.38;;;20.80;99.90;;;;;;5031896;28;21079;-74
2022/07/13 07:11:48;;;;;;;12.23;10.00;;;20.80;99.90;;;;;;5059832;28;20132;-74
2022/07/13 07:14:14;;;;;;;12.77;9.15;;;20.90;99.90;;;;;;5051979;28;20044;-78
2022/07/13 07:16:42;;;;;;;10.85;8.38;;;21.00;99.90;;;;;;5068816;28;20136;-79
2022/07/13 07:19:09;;;;;;;10.60;8.82;;;21.00;99.90;;;;;;5066854;28;20036;-79
2022/07/13 07:21:36;;;;;;;10.93;8.60;;;21.30;99.90;;;;;;5066494;28;20543;-77
2022/07/13 07:24:03;;;;;;;9.25;8.38;;;21.10;99.90;;;;;;5062729;28;20106;-80
2022/07/13 07:26:30;;;;;;;9.20;7.85;;;21.20;99.90;;;;;;5070186;28;20127;-81
2022/07/13 07:28:58;;;;;;;14.32;8.27;;;21.20;99.90;;;;;;5068767;28;20045;-80
2022/07/13 07:31:25;;;;;;;9.27;6.85;;;21.30;99.90;;;;;;5028575;28;20127;-81
2022/07/13 07:33:53;;;;;;;6.32;5.72;;;21.30;99.90;;;;;;5065895;28;20036;-79
2022/07/13 07:36:19;;;;;;;7.82;6.82;;;21.40;99.90;;;;;;5055091;28;20478;-79
2022/07/13 07:38:45;;;;;;;10.63;6.68;;;21.40;99.90;;;;;;5062937;28;20040;-75
2022/07/13 07:41:11;;;;;;;9.30;6.97;;;21.40;99.90;;;;;;5066967;28;20048;-75
2022/07/13 07:43:37;;;;;;;8.18;6.00;;;21.50;99.90;;;;;;5065079;28;20249;-75
2022/07/13 07:46:03;;;;;;;14.25;6.93;;;22.10;99.90;;;;;;5063713;28;20059;-74
2022/07/13 07:48:28;;;;;;;10.20;6.40;;;21.60;99.90;;;;;;5058902;28;20037;-74
2022/07/13 07:50:57;;;;;;;8.50;5.90;;;21.60;99.90;;;;;;5060634;28;20044;-72
2022/07/13 07:53:22;;;;;;;7.15;5.68;;;21.60;99.90;;;;;;5048919;28;20047;-73
2022/07/13 07:55:48;;;;;;;9.52;5.72;;;21.80;99.90;;;;;;5062584;28;20044;-72
2022/07/13 07:58:14;;;;;;;10.80;6.57;;;22.00;99.90;;;;;;5058132;28;20102;-72
2022/07/13 08:00:43;;;;;;;11.98;6.30;;;21.80;99.90;;;;;;5065011;28;20044;-72
2022/07/13 08:03:09;;;;;;;10.02;6.07;;;21.80;99.90;;;;;;5063593;28;20083;-72
2022/07/13 08:05:36;;;;;;;9.55;6.13;;;22.00;99.90;;;;;;5044435;28;20052;-72
2022/07/13 08:08:04;;;;;;;9.10;5.63;;;21.90;99.90;;;;;;5066578;28;20541;-73
2022/07/13 08:10:33;;;;;;;11.73;6.55;;;22.00;99.90;;;;;;5066829;28;20043;-73
2022/07/13 08:13:03;;;;;;;12.05;7.82;;;22.00;99.90;;;;;;5063760;28;20127;-74
2022/07/13 08:15:29;;;;;;;9.50;5.50;;;22.00;99.90;;;;;;5056437;28;20052;-76
2022/07/13 08:17:55;;;;;;;9.68;5.47;;;22.20;99.90;;;;;;5047727;28;20057;-74
2022/07/13 08:20:21;;;;;;;7.97;6.28;;;22.00;99.90;;;;;;5061097;28;20219;-74
2022/07/13 08:22:47;;;;;;;10.18;5.57;;;22.20;99.90;;;;;;5066029;28;20170;-75
2022/07/13 08:25:12;;;;;;;12.30;6.53;;;22.20;99.90;;;;;;5068371;28;20060;-76
2022/07/13 08:27:38;;;;;;;9.45;5.65;;;22.20;99.90;;;;;;5062417;28;20045;-74
2022/07/13 08:30:07;;;;;;;9.77;6.90;;;22.30;99.90;;;;;;5062977;28;20051;-75
2022/07/13 08:32:33;;;;;;;11.85;6.85;;;22.20;99.90;;;;;;5068860;28;20037;-74
2022/07/13 08:40:27;;;;;;;8.25;6.03;;;22.40;99.90;;;;;;5062524;28;20056;-75
2022/07/13 08:42:53;;;;;;;9.07;5.53;;;22.50;99.90;;;;;;5062968;28;20043;-77
2022/07/13 08:45:18;;;;;;;12.32;6.03;;;22.50;99.90;;;;;;5064116;28;20045;-78
2022/07/13 08:47:46;;;;;;;6.35;5.03;;;22.60;99.90;;;;;;5063750;28;20439;-74
2022/07/13 08:50:12;;;;;;;6.65;4.30;;;22.60;99.90;;;;;;5065290;28;20472;-72
2022/07/13 08:52:41;;;;;;;7.50;5.22;;;22.60;99.90;;;;;;5068362;28;20051;-73
2022/07/13 08:55:08;;;;;;;14.88;4.43;;;22.70;99.90;;;;;;5064447;28;20119;-73
2022/07/13 08:57:38;;;;;;;11.23;5.70;;;22.70;99.90;;;;;;5062628;28;20036;-77
2022/07/13 09:00:07;;;;;;;11.63;4.57;;;22.70;99.90;;;;;;5057455;28;20128;-76
2022/07/13 09:02:33;;;;;;;8.45;4.28;;;22.80;99.90;;;;;;5058240;28;20032;-77
2022/07/13 09:05:05;;;;;;;6.88;3.85;;;22.90;99.90;;;;;;5057566;28;20036;-77
2022/07/13 09:07:32;;;;;;;6.60;3.72;;;22.90;99.90;;;;;;5060110;28;20056;-75
2022/07/13 09:09:58;;;;;;;5.75;3.40;;;23.00;99.90;;;;;;5059730;28;20039;-76
2022/07/13 09:12:26;;;;;;;5.68;2.65;;;23.00;99.90;;;;;;5061304;28;20049;-77
2022/07/13 09:14:56;;;;;;;6.00;2.72;;;22.90;99.90;;;;;;5059517;28;20093;-76
2022/07/13 09:17:29;;;;;;;3.45;2.10;;;23.10;99.90;;;;;;5063815;28;20040;-75
2022/07/13 09:19:55;;;;;;;7.95;3.67;;;23.10;99.90;;;;;;5064859;28;20416;-77
2022/07/13 09:22:20;;;;;;;5.43;2.72;;;23.10;99.90;;;;;;5056292;28;20052;-76
2022/07/13 09:24:47;;;;;;;5.43;2.42;;;23.10;99.90;;;;;;5062405;28;20037;-76
2022/07/13 09:27:14;;;;;;;5.15;1.90;;;23.20;99.90;;;;;;5061681;28;20094;-77
2022/07/13 09:29:40;;;;;;;5.38;2.35;;;23.20;99.90;;;;;;5057131;28;20797;-75
2022/07/13 09:32:08;;;;;;;3.58;1.73;;;23.20;99.90;;;;;;5062561;28;20037;-78
2022/07/13 09:34:53;;;;;;;5.05;2.25;;;23.30;99.90;;;;;;5060870;28;20028;-77
2022/07/13 09:37:24;;;;;;;6.15;2.20;;;23.30;99.90;;;;;;5066799;28;20060;-79
2022/07/13 09:40:07;;;;;;;5.95;2.30;;;23.40;99.90;;;;;;5067766;28;20048;-77
2022/07/13 09:42:40;;;;;;;9.38;3.45;;;23.40;99.90;;;;;;5068295;28;20484;-77
2022/07/13 09:47:54;;;;;;;4.88;2.75;;;23.50;99.90;;;;;;5058485;28;20049;-78
2022/07/13 09:50:37;;;;;;;4.38;2.38;;;23.60;99.90;;;;;;5056734;28;20094;-78
2022/07/13 09:53:03;;;;;;;2.20;1.75;;;23.70;99.90;;;;;;5058095;28;20045;-78
2022/07/13 09:55:33;;;;;;;4.45;2.30;;;23.70;99.90;;;;;;5057832;28;20399;-78
2022/07/13 09:58:04;;;;;;;3.90;2.45;;;23.80;99.90;;;;;;5062211;28;20067;-77
2022/07/13 10:00:36;;;;;;;6.57;2.10;;;23.80;99.90;;;;;;5057815;28;20084;-77
2022/07/13 10:03:04;;;;;;;3.70;3.13;;;23.80;99.90;;;;;;5067087;28;20049;-78
2022/07/13 10:05:35;;;;;;;8.55;3.00;;;23.80;99.90;;;;;;5059607;28;20045;-78
2022/07/13 10:08:01;;;;;;;7.28;2.33;;;24.20;99.90;;;;;;5054613;28;20044;-78
2022/07/13 10:10:27;;;;;;;5.20;1.98;;;23.90;99.90;;;;;;5050598;28;20040;-78
2022/07/13 10:12:54;;;;;;;3.97;1.90;;;23.90;99.90;;;;;;5064403;28;20041;-77
2022/07/13 10:15:21;;;;;;;4.25;1.77;;;23.90;99.90;;;;;;5057923;28;20053;-77
2022/07/13 10:17:48;;;;;;;5.85;1.70;;;23.90;99.90;;;;;;5048529;28;20048;-77
2022/07/13 10:20:19;;;;;;;3.08;1.40;;;24.00;99.90;;;;;;5068414;28;20036;-77
2022/07/13 10:22:51;;;;;;;1.75;1.10;;;24.10;99.90;;;;;;5067172;28;20036;-78
2022/07/13 10:25:17;;;;;;;3.47;1.75;;;24.10;99.90;;;;;;5049493;28;20072;-78
2022/07/13 10:27:43;;;;;;;3.17;2.20;;;24.10;99.90;;;;;;5071321;28;20396;-77
2022/07/13 10:30:23;;;;;;;5.53;1.33;;;24.20;99.90;;;;;;5071684;28;20388;-77
2022/07/13 10:32:48;;;;;;;4.32;2.08;;;24.30;99.90;;;;;;5071664;28;20043;-78
2022/07/13 10:35:16;;;;;;;3.10;1.98;;;24.30;99.90;;;;;;5037922;28;20040;-77
2022/07/13 10:38:00;;;;;;;3.35;2.10;;;24.40;99.90;;;;;;5069198;28;20541;-78
2022/07/13 10:40:27;;;;;;;8.07;4.03;;;24.50;99.90;;;;;;5045860;28;20052;-77
2022/07/13 10:42:53;;;;;;;6.20;3.95;;;24.50;99.90;;;;;;5067700;28;20037;-77
2022/07/13 10:45:43;;;;;;;6.10;3.13;;;24.60;99.90;;;;;;5054098;28;20044;-77
2022/07/13 10:48:21;;;;;;;3.65;2.63;;;24.60;99.90;;;;;;5043420;28;20063;-78
2022/07/13 10:50:58;;;;;;;2.20;1.63;;;24.60;99.90;;;;;;5052620;28;20451;-78
2022/07/13 10:53:38;;;;;;;3.03;1.67;;;24.60;99.90;;;;;;5053385;28;20041;-78
2022/07/13 10:56:21;;;;;;;3.33;1.88;;;24.80;99.90;;;;;;5065311;28;20427;-78
2022/07/13 10:58:49;;;;;;;2.22;1.80;;;24.80;99.90;;;;;;5066918;28;20412;-79
2022/07/13 11:01:36;;;;;;;2.72;1.83;;;24.80;99.90;;;;;;5052184;28;20340;-79
2022/07/13 11:04:05;;;;;;;3.60;2.38;;;24.90;99.90;;;;;;5045364;28;20060;-79
2022/07/13 11:06:32;;;;;;;3.88;2.50;;;24.90;99.90;;;;;;5072314;28;20488;-77
2022/07/13 11:09:12;;;;;;;2.95;1.40;;;24.90;99.90;;;;;;5060639;28;20492;-77
2022/07/13 11:11:58;;;;;;;4.43;1.65;;;25.10;99.90;;;;;;5061981;28;20688;-77
2022/07/13 11:14:35;;;;;;;5.43;1.48;;;25.10;99.90;;;;;;5060629;28;20048;-77
2022/07/13 11:17:31;;;;;;;4.05;2.50;;;25.10;99.90;;;;;;5056356;28;20051;-78
2022/07/13 11:19:57;;;;;;;4.15;1.58;;;25.10;99.90;;;;;;5052609;28;20048;-77
2022/07/13 11:25:13;;;;;;;5.20;1.80;;;25.40;99.90;;;;;;5071053;28;20080;-77
2022/07/13 11:25:38;;;;;;;2.47;1.67;;;25.10;99.90;;;;;;5071086;28;20307;-76
2022/07/13 11:28:20;;;;;;;5.10;1.30;;;25.30;99.90;;;;;;5063773;28;20045;-78
2022/07/13 11:31:07;;;;;;;2.00;1.30;;;25.40;99.90;;;;;;5069563;28;20078;-77
2022/07/13 11:33:33;;;;;;;1.45;1.08;;;25.40;99.90;;;;;;5071303;28;20048;-77
2022/07/13 11:36:00;;;;;;;2.05;1.13;;;26.00;99.90;;;;;;5074172;28;20510;-76
2022/07/13 11:38:34;;;;;;;2.13;1.10;;;25.70;99.90;;;;;;5071614;28;20037;-77
2022/07/13 11:41:00;;;;;;;3.10;0.95;;;25.30;99.90;;;;;;5068141;28;20116;-78
2022/07/13 11:43:26;;;;;;;4.00;1.30;;;25.50;99.90;;;;;;5067123;28;20143;-77
2022/07/13 11:45:51;;;;;;;3.58;1.45;;;26.30;99.90;;;;;;5066230;28;20044;-78
2022/07/13 11:48:17;;;;;;;3.72;1.10;;;25.60;99.90;;;;;;5056321;28;20049;-76
2022/07/13 11:50:51;;;;;;;1.27;1.17;;;25.60;99.90;;;;;;5066201;28;20374;-77
2022/07/13 11:53:20;;;;;;;;;;;25.60;99.90;;;;;;5070709;28;20506;-77
2022/07/13 11:55:46;;;;;;;4.40;1.48;;;25.50;99.90;;;;;;5068092;28;20387;-77
2022/07/13 11:58:28;;;;;;;3.70;1.40;;;25.50;99.90;;;;;;5066150;28;20051;-76
2022/07/13 12:00:55;;;;;;;6.90;1.75;;;25.50;99.90;;;;;;5045044;28;20431;-77
2022/07/13 12:03:27;;;;;;;2.60;2.10;;;25.50;99.90;;;;;;5069644;28;20414;-77
2022/07/13 12:06:02;;;;;;;6.13;1.85;;;25.90;99.90;;;;;;5041200;28;20099;-75
2022/07/13 12:08:30;;;;;;;2.90;1.60;;;25.60;99.90;;;;;;5062672;28;20036;-75
2022/07/13 12:10:57;;;;;;;3.47;1.77;;;25.60;99.90;;;;;;5065178;28;20047;-76
2022/07/13 12:13:22;;;;;;;3.55;1.95;;;25.80;99.90;;;;;;5065957;28;20075;-75
2022/07/13 12:15:49;;;;;;;4.03;1.70;;;25.40;99.90;;;;;;5065770;28;20123;-75
2022/07/13 12:18:14;;;;;;;3.80;1.77;;;25.40;99.90;;;;;;5063437;28;20134;-75
2022/07/13 12:20:41;;;;;;;6.53;2.15;;;25.50;99.90;;;;;;5046121;28;20511;-76
2022/07/13 12:23:07;;;;;;;4.22;1.77;;;25.70;99.90;;;;;;5064227;28;20045;-75
2022/07/13 12:25:35;;;;;;;4.07;1.40;;;25.80;99.90;;;;;;5048361;28;20052;-76
2022/07/13 12:28:03;;;;;;;3.67;1.50;;;25.90;99.90;;;;;;5044767;28;20056;-76
2022/07/13 12:30:33;;;;;;;2.95;1.45;;;25.80;99.90;;;;;;5067294;28;20037;-76
2022/07/13 12:33:09;;;;;;;3.03;1.50;;;25.80;99.90;;;;;;5063435;28;20094;-77
2022/07/13 12:35:40;;;;;;;4.95;1.40;;;25.90;99.90;;;;;;5062864;28;20052;-76
2022/07/13 12:38:14;;;;;;;6.05;1.80;;;25.90;99.90;;;;;;5059271;28;20369;-77
2022/07/13 12:40:55;;;;;;;6.55;1.50;;;25.90;99.90;;;;;;5045141;28;20510;-76
2022/07/13 12:43:22;;;;;;;4.60;1.80;;;26.00;99.90;;;;;;5043239;28;20601;-76
2022/07/13 12:45:55;;;;;;;2.95;1.05;;;26.10;99.90;;;;;;5063879;28;20412;-77
2022/07/13 12:48:25;;;;;;;6.32;1.77;;;26.10;99.90;;;;;;5062151;28;20099;-77
2022/07/13 12:51:06;;;;;;;8.32;1.63;;;26.10;99.90;;;;;;5060213;28;20068;-77
2022/07/13 12:53:51;;;;;;;6.70;1.90;;;26.10;99.90;;;;;;5062463;28;20044;-77
2022/07/13 12:56:17;;;;;;;4.38;1.60;;;26.10;99.90;;;;;;5064776;28;20048;-77
2022/07/13 12:58:49;;;;;;;5.38;1.48;;;26.20;99.90;;;;;;5064714;28;20317;-77